Startpagina
METAR-TAF:

METAR-TAF

Vliegvelden :

Tahiti, Frans-Polynesië

breedte: 17-33S, lengte: 149-37W, hoogte: 2 m

Actueel weer

Dit bericht is 27 minuten geleden gemaakt, om 21:30 UTC
Wind 16 kt uit het oostnoordoosten
Temperatuur 31°C
Vochtigheid 63%
Druk 1014 hPa
Zicht 10 km of meer
Weinig wolken op 2300 ft

METAR: NTAA 232130Z 06016KT 9999 FEW023 31/23 Q1014 NOSIG

Tijdstip: 11:57 (21:57 UTC)

Verwachting

Dit bericht is 30 minuten geleden gemaakt, om 21:27 UTC
Verwachting geldig van 23 om 21 UTC tot 24 om 24 UTC
Wind 15 kt uit het noordoosten
Zicht 10 km of meer
Weinig wolken op 2300 ft
Wijzigt naar
van 24 om 02 UTC tot 24 om 04 UTC
Wind 3 kt uit variabele richting

TAF: NTAA 232127Z 2321/2424 05015KT 9999 FEW023 BECMG 2402/2404 VRB03KT

Waarnemingen en weersverwachtingen van meer dan 4000 vliegvelden (METAR en TAF).

De beschikbare stations zijn de gele en rode punten op de kaart.

Ga met uw muis naar het station om de naam te zien.

Klik dan om waarnemingen en weersverwachtingen te zien.

kaart wijzigen: klik op de groene knoppen met een zwart kruis om in te zoomen, op de groene knop met een streepje om uit te zoomen of op de groene pijlen voor aangrenzende kaarten.


METAR-TAF: